DW0465 Weather Reports


Display with metric or nautical units.
time (UTC)temp
F
wind
direction
speed
MPH
gust
MPH
rain 1hr
in
rain 24hr
in
rain mn
in
humidity
%
barometer
mb
20220627110038 46 177 4.0 8.0 0.00 0.00 0.00 72 1019.1
20220627104532 46 220 5.0 10.0 0.00 0.00 0.00 72 1019.0
20220627103032 46 182 8.0 12.0 0.00 0.00 0.00 73 1019.0
20220627101530 46 207 8.0 12.0 0.00 0.00 0.00 73 1019.0
20220627100028 47 200 5.0 10.0 0.00 0.00 0.00 72 1019.1
20220627094526 47 202 2.0 6.0 0.00 0.00 0.00 72 1019.2
20220627093025 47 197 4.0 10.0 0.00 0.00 0.00 73 1019.2
20220627091524 47 212 6.0 15.0 0.00 0.00 0.00 72 1019.2
20220627090023 47 190 6.0 11.0 0.00 0.00 0.00 71 1019.0
20220627084518 48 194 2.0 7.0 0.00 0.00 0.00 69 1019.0
20220627083015 49 198 4.0 9.0 0.00 0.00 0.00 68 1019.2
20220627081515 49 202 5.0 12.0 0.00 0.00 0.00 69 1019.2
20220627080012 49 189 3.0 7.0 0.00 0.00 0.00 68 1019.3
20220627074508 49 191 3.0 6.0 0.00 0.00 0.00 67 1019.4
20220627073006 50 194 2.0 7.0 0.00 0.00 0.00 65 1019.4
20220627071502 51 199 2.0 6.0 0.00 0.00 0.00 63 1019.4
20220627070100 52 194 3.0 6.0 0.00 0.00 0.00 62 1019.5
20220627064559 53 170 3.0 6.0 0.00 0.00 0.00 61 1019.6
20220627063057 52 167 4.0 8.0 0.00 0.00 0.00 61 1019.6
20220627061554 52 198 3.0 8.0 0.00 0.00 0.00 61 1019.7
20220627060052 52 176 1.0 3.0 0.00 0.00 0.00 59 1019.8
20220627054550 52 188 1.0 4.0 0.00 0.00 0.00 62 1019.9
20220627053056 52 196 3.0 7.0 0.00 0.00 0.00 61 1019.9
20220627051559 53 190 0.0 0.0 0.00 0.00 0.00 58 1019.9
20220627050053 55 190 0.0 0.0 0.00 0.00 0.00 56 1019.8
20220627044554 56 190 0.0 0.0 0.00 0.00 0.00 48 1019.9
20220627043050 57 191 0.0 2.0 0.00 0.00 0.00 45 1020.0
20220627041547 57 175 0.0 0.0 0.00 0.00 0.00 43 1020.0
20220627040049 58 176 0.0 0.0 0.00 0.00 0.00 44 1019.9
20220627034550 60 176 0.0 0.0 0.00 0.00 0.00 50 1019.8
20220627033045 62 176 0.0 0.0 0.00 0.00 0.00 41 1019.6
20220627031545 65 176 0.0 1.0 0.00 0.00 0.00 39 1019.6
20220627030045 67 172 1.0 5.0 0.00 0.00 0.00 29 1019.4
20220627024547 68 144 2.0 7.0 0.00 0.00 0.00 28 1019.4
20220627023049 70 142 1.0 8.0 0.00 0.00 0.00 29 1019.2
20220627021550 71 146 2.0 9.0 0.00 0.00 0.00 29 1019.2
20220627020041 71 122 4.0 9.0 0.00 0.00 0.00 28 1019.2
20220627014540 72 150 2.0 11.0 0.00 0.00 0.00 29 1019.2
20220627013044 72 152 1.0 9.0 0.00 0.00 0.00 30 1019.1
20220627011539 73 132 4.0 10.0 0.00 0.00 0.00 29 1019.2
20220627010038 73 132 4.0 10.0 0.00 0.00 0.00 29 1019.2
20220627004536 73 118 6.0 12.0 0.00 0.00 0.00 30 1019.2
20220627003042 73 94 4.0 12.0 0.00 0.00 0.00 30 1019.1
20220627001533 73 126 1.0 13.0 0.00 0.00 0.00 31 1019.3
20220627000033 73 148 5.0 12.0 0.00 0.00 0.00 30 1019.4
20220626234532 74 117 5.0 15.0 0.00 0.00 0.00 30 1019.5
20220626233035 73 205 4.0 10.0 0.00 0.00 0.00 30 1019.7
20220626231528 73 98 3.0 8.0 0.00 0.00 0.00 32 1020.0
20220626230028 73 165 6.0 14.0 0.00 0.00 0.00 31 1020.2
20220626224527 73 164 4.0 10.0 0.00 0.00 0.00 30 1020.5
20220626223021 73 171 6.0 14.0 0.00 0.00 0.00 30 1020.6
20220626221531 73 142 4.0 12.0 0.00 0.00 0.00 30 1020.9
20220626220020 73 161 1.0 10.0 0.00 0.00 0.00 32 1021.0
20220626214515 71 117 1.0 10.0 0.00 0.00 0.00 31 1021.3
20220626213013 72 129 3.0 15.0 0.00 0.00 0.00 32 1021.4
20220626211510 71 291 1.0 8.0 0.00 0.00 0.00 31 1021.5
20220626210004 70 129 3.0 12.0 0.00 0.00 0.00 31 1021.8
20220626204601 70 173 4.0 12.0 0.00 0.00 0.00 31 1022.2
20220626203100 69 49 5.0 11.0 0.00 0.00 0.00 33 1022.4
20220626201555 69 165 4.0 11.0 0.00 0.00 0.00 34 1022.7
20220626200052 69 145 1.0 7.0 0.00 0.00 0.00 36 1022.8
20220626194552 68 152 3.0 9.0 0.00 0.00 0.00 35 1023.0
20220626193048 68 109 5.0 13.0 0.00 0.00 0.00 35 1023.3
20220626191545 67 123 4.0 9.0 0.00 0.00 0.00 36 1023.5
20220626190046 67 138 4.0 12.0 0.00 0.00 0.00 35 1023.7
20220626184545 66 120 0.0 9.0 0.00 0.00 0.00 40 1023.9
20220626183037 66 197 3.0 9.0 0.00 0.00 0.00 37 1024.2
20220626181532 65 114 2.0 6.0 0.00 0.00 0.00 38 1024.4
20220626180035 64 145 5.0 11.0 0.00 0.00 0.00 39 1024.7
20220626174524 63 290 1.0 10.0 0.00 0.00 0.00 39 1024.9
20220626173021 63 101 3.0 10.0 0.00 0.00 0.00 41 1025.2
20220626171518 62 121 4.0 11.0 0.00 0.00 0.00 41 1025.4
20220626170012 62 143 2.0 8.0 0.00 0.00 0.00 44 1025.6
20220626164508 62 164 0.0 9.0 0.00 0.00 0.00 44 1025.8
20220626163004 61 139 4.0 8.0 0.00 0.00 0.00 45 1025.9
20220626161600 60 136 3.0 9.0 0.00 0.00 0.00 46 1026.1
20220626160100 61 136 3.0 9.0 0.00 0.00 0.00 46 1026.3
20220626154550 59 177 1.0 8.0 0.00 0.00 0.00 49 1026.4
20220626153056 58 170 2.0 6.0 0.00 0.00 0.00 51 1026.6
20220626151541 56 231 0.0 5.0 0.00 0.00 0.00 51 1026.7
20220626150037 55 209 0.0 5.0 0.00 0.00 0.00 50 1026.9
20220626144533 55 244 1.0 5.0 0.00 0.00 0.00 56 1027.0
20220626143026 53 219 1.0 5.0 0.00 0.00 0.00 59 1027.2
20220626141535 51 196 2.0 7.0 0.00 0.00 0.00 63 1027.3
20220626140018 49 182 3.0 8.0 0.00 0.00 0.00 65 1027.2
20220626134513 47 227 4.0 10.0 0.00 0.00 0.00 68 1027.4
20220626133010 46 194 6.0 10.0 0.00 0.00 0.00 71 1027.4
20220626131506 44 180 6.0 9.0 0.00 0.00 0.00 73 1027.6
20220626130002 42 192 6.0 10.0 0.00 0.00 0.00 75 1027.5
20220626124557 41 194 5.0 10.0 0.00 0.00 0.00 77 1027.5
20220626123058 40 209 4.0 9.0 0.00 0.00 0.00 79 1027.4
20220626121549 39 208 3.0 10.0 0.00 0.00 0.00 81 1027.3
20220626120048 38 186 3.0 6.0 0.00 0.00 0.00 82 1027.3
20220626114550 38 197 3.0 6.0 0.00 0.00 0.00 81 1027.3
20220626113044 39 221 3.0 8.0 0.00 0.00 0.00 81 1027.3
20220626111552 39 200 6.0 10.0 0.00 0.00 0.00 81 1027.4